createdAt,value
2018-09-25T00:00:37.686Z,0.60
2018-09-25T00:01:47.380Z,1.10
2018-09-25T00:02:57.010Z,0.88
2018-09-25T00:04:06.481Z,1.10
2018-09-25T00:05:16.082Z,0.98
2018-09-25T00:06:25.853Z,1.25
2018-09-25T00:07:35.461Z,0.93
2018-09-25T00:08:45.156Z,0.85
2018-09-25T00:09:54.690Z,0.55
2018-09-25T00:11:04.339Z,1.10
2018-09-25T00:12:13.973Z,1.00
2018-09-25T00:13:23.719Z,1.00
2018-09-25T00:14:33.194Z,1.10
2018-09-25T00:15:42.844Z,1.00
2018-09-25T00:16:52.406Z,2.95
2018-09-25T00:18:02.007Z,1.37
2018-09-25T00:19:11.719Z,1.00
2018-09-25T00:20:21.305Z,0.90
2018-09-25T00:21:30.796Z,0.72
2018-09-25T00:22:40.461Z,1.20
2018-09-25T00:23:49.974Z,0.85
2018-09-25T00:24:59.393Z,1.10
2018-09-25T00:26:08.989Z,0.82
2018-09-25T00:27:18.578Z,1.00
2018-09-25T00:28:28.211Z,0.70
2018-09-25T00:29:37.741Z,1.05
2018-09-25T00:30:47.385Z,1.02
2018-09-25T00:31:57.036Z,0.95
2018-09-25T00:33:06.372Z,0.93
2018-09-25T00:34:15.793Z,0.90
2018-09-25T00:35:25.408Z,1.00
2018-09-25T00:36:35.041Z,1.20
2018-09-25T00:37:44.720Z,0.90
2018-09-25T00:38:54.294Z,0.95
2018-09-25T00:40:04.088Z,1.20
2018-09-25T00:41:13.795Z,0.95
2018-09-25T00:42:23.559Z,0.80
2018-09-25T00:43:33.262Z,0.95
2018-09-25T00:44:42.878Z,1.12
2018-09-25T00:45:52.561Z,1.05
2018-09-25T00:47:02.344Z,1.32
2018-09-25T00:48:12.009Z,1.52
2018-09-25T00:49:21.626Z,1.30
2018-09-25T00:50:31.168Z,0.98
2018-09-25T00:51:40.884Z,0.98
2018-09-25T00:52:50.467Z,1.10
2018-09-25T00:54:00.136Z,1.35
2018-09-25T00:55:09.682Z,0.72
2018-09-25T00:56:19.397Z,0.90
2018-09-25T00:57:28.874Z,0.90
2018-09-25T00:58:38.626Z,1.05
2018-09-25T00:59:48.238Z,0.70
2018-09-25T01:00:57.986Z,0.70
2018-09-25T01:02:07.639Z,0.85
2018-09-25T01:03:17.345Z,0.90
2018-09-25T01:04:26.777Z,0.70
2018-09-25T01:05:36.529Z,1.30
2018-09-25T01:06:45.968Z,1.00
2018-09-25T01:07:55.546Z,1.25
2018-09-25T01:09:05.136Z,1.20
2018-09-25T01:10:14.817Z,0.90
2018-09-25T01:11:24.353Z,0.62
2018-09-25T01:12:33.892Z,0.80
2018-09-25T01:13:43.521Z,1.00
2018-09-25T01:14:53.369Z,1.22
2018-09-25T01:16:02.746Z,1.17
2018-09-25T01:17:12.532Z,0.88
2018-09-25T01:18:22.108Z,0.95
2018-09-25T01:19:31.782Z,0.95
2018-09-25T01:20:41.423Z,0.70
2018-09-25T01:21:50.932Z,1.05
2018-09-25T01:23:00.747Z,1.15
2018-09-25T01:24:10.538Z,0.95
2018-09-25T01:25:20.123Z,0.90
2018-09-25T01:26:29.945Z,1.22
2018-09-25T01:27:39.419Z,1.07
2018-09-25T01:28:49.348Z,1.12
2018-09-25T01:29:59.132Z,1.10
2018-09-25T01:31:08.757Z,0.95
2018-09-25T01:32:18.321Z,1.10
2018-09-25T01:33:27.971Z,0.90
2018-09-25T01:34:37.453Z,0.90
2018-09-25T01:35:46.912Z,1.00
2018-09-25T01:36:56.807Z,0.70
2018-09-25T01:38:06.790Z,0.75
2018-09-25T01:39:16.499Z,1.00
2018-09-25T01:40:25.961Z,0.90
2018-09-25T01:41:35.467Z,0.75
2018-09-25T01:42:45.137Z,0.95
2018-09-25T01:43:54.671Z,1.10
2018-09-25T01:45:04.185Z,0.78
2018-09-25T01:46:14.033Z,0.85
2018-09-25T01:47:23.332Z,0.93
2018-09-25T01:48:39.587Z,1.02
2018-09-25T01:49:49.276Z,0.90
2018-09-25T01:50:59.152Z,0.70
2018-09-25T01:52:08.928Z,0.70
2018-09-25T01:53:18.496Z,1.00
2018-09-25T01:54:27.976Z,0.70
2018-09-25T01:55:37.854Z,1.10
2018-09-25T01:56:47.648Z,0.90
2018-09-25T01:57:57.201Z,1.15
2018-09-25T01:59:06.656Z,1.22
2018-09-25T02:00:16.182Z,0.70
2018-09-25T02:01:25.706Z,1.17
2018-09-25T02:02:35.243Z,1.00
2018-09-25T02:03:45.026Z,0.72
2018-09-25T02:04:54.611Z,0.82
2018-09-25T02:06:04.262Z,1.00
2018-09-25T02:07:13.533Z,0.80
2018-09-25T02:08:23.153Z,0.82
2018-09-25T02:09:32.845Z,1.12
2018-09-25T02:10:42.269Z,0.82
2018-09-25T02:11:51.877Z,0.60
2018-09-25T02:13:01.517Z,0.85
2018-09-25T02:14:10.967Z,1.07
2018-09-25T02:15:20.558Z,1.05
2018-09-25T02:16:30.109Z,1.07
2018-09-25T02:17:39.557Z,1.00
2018-09-25T02:18:49.367Z,1.55
2018-09-25T02:19:59.025Z,1.37
2018-09-25T02:21:08.574Z,0.70
2018-09-25T02:22:18.062Z,1.22
2018-09-25T02:23:27.498Z,1.12
2018-09-25T02:24:37.307Z,1.25
2018-09-25T02:25:46.765Z,0.70
2018-09-25T02:26:56.275Z,1.02
2018-09-25T02:28:05.734Z,1.20
2018-09-25T02:29:15.214Z,1.20
2018-09-25T02:30:24.819Z,1.10
2018-09-25T02:31:34.523Z,1.10
2018-09-25T02:32:43.882Z,0.98
2018-09-25T02:33:53.557Z,0.60
2018-09-25T02:35:03.441Z,0.90
2018-09-25T02:36:12.983Z,1.02
2018-09-25T02:37:22.609Z,1.20
2018-09-25T02:38:32.077Z,1.40
2018-09-25T02:39:41.598Z,1.22
2018-09-25T02:40:51.026Z,1.02
2018-09-25T02:42:00.615Z,1.02
2018-09-25T02:43:10.451Z,1.15
2018-09-25T02:44:20.236Z,0.90
2018-09-25T02:45:29.806Z,1.42
2018-09-25T02:46:39.468Z,1.15
2018-09-25T02:47:49.090Z,1.27
2018-09-25T02:48:58.709Z,1.12
2018-09-25T02:50:08.223Z,1.27
2018-09-25T02:51:18.186Z,0.95
2018-09-25T02:52:27.857Z,1.00
2018-09-25T02:53:37.561Z,1.00
2018-09-25T02:54:47.377Z,1.30
2018-09-25T02:55:56.984Z,1.20
2018-09-25T02:57:06.587Z,0.85
2018-09-25T02:58:16.114Z,1.60
2018-09-25T02:59:25.661Z,1.20
2018-09-25T03:00:35.238Z,1.10
2018-09-25T03:01:44.930Z,1.17
2018-09-25T03:02:54.625Z,1.20
2018-09-25T03:04:04.140Z,1.30
2018-09-25T03:05:13.617Z,1.20
2018-09-25T03:06:23.181Z,1.65
2018-09-25T03:07:33.000Z,1.82
2018-09-25T03:08:42.613Z,0.93
2018-09-25T03:09:52.212Z,1.15
2018-09-25T03:11:01.837Z,1.02
2018-09-25T03:12:11.455Z,1.12
2018-09-25T03:13:20.878Z,1.25
2018-09-25T03:14:30.338Z,0.95
2018-09-25T03:15:39.894Z,1.10
2018-09-25T03:16:49.485Z,1.10
2018-09-25T03:17:59.028Z,1.67
2018-09-25T03:19:09.056Z,1.47
2018-09-25T03:20:18.574Z,1.25
2018-09-25T03:21:28.489Z,1.02
2018-09-25T03:22:38.177Z,1.00
2018-09-25T03:23:47.744Z,1.15
2018-09-25T03:24:57.617Z,1.15
2018-09-25T03:26:07.119Z,0.82
2018-09-25T03:27:16.799Z,1.27
2018-09-25T03:28:26.438Z,0.90
2018-09-25T03:29:36.281Z,1.00
2018-09-25T03:30:46.320Z,1.30
2018-09-25T03:31:55.794Z,1.35
2018-09-25T03:33:05.374Z,1.10
2018-09-25T03:34:15.118Z,1.00
2018-09-25T03:35:24.518Z,1.20
2018-09-25T03:36:34.060Z,0.95
2018-09-25T03:37:43.624Z,1.60
2018-09-25T03:38:52.962Z,1.40
2018-09-25T03:40:02.589Z,1.30
2018-09-25T03:41:12.083Z,0.85
2018-09-25T03:42:21.379Z,0.80
2018-09-25T03:43:31.097Z,1.20
2018-09-25T03:44:40.729Z,0.90
2018-09-25T03:45:50.290Z,1.45
2018-09-25T03:46:59.813Z,1.20
2018-09-25T03:48:09.513Z,1.42
2018-09-25T03:49:19.344Z,1.27
2018-09-25T03:50:29.000Z,1.12
2018-09-25T03:51:38.634Z,1.12
2018-09-25T03:52:48.261Z,1.20
2018-09-25T03:53:57.964Z,0.82
2018-09-25T03:55:07.711Z,1.52
2018-09-25T03:56:17.278Z,1.20
2018-09-25T03:57:27.059Z,1.15
2018-09-25T03:58:36.651Z,1.50
2018-09-25T03:59:45.997Z,1.37
2018-09-25T04:00:55.506Z,1.50
2018-09-25T04:02:04.975Z,1.10
2018-09-25T04:03:14.686Z,1.20
2018-09-25T04:04:24.015Z,1.70
2018-09-25T04:05:33.601Z,1.00
2018-09-25T04:06:43.342Z,0.90
2018-09-25T04:07:53.094Z,0.98
2018-09-25T04:09:02.879Z,1.20
2018-09-25T04:10:12.437Z,1.52
2018-09-25T04:11:22.039Z,1.25
2018-09-25T04:12:31.525Z,0.80
2018-09-25T04:13:41.132Z,1.20
2018-09-25T04:14:50.726Z,1.10
2018-09-25T04:16:00.388Z,1.30
2018-09-25T04:17:10.041Z,1.30
2018-09-25T04:18:19.653Z,1.20
2018-09-25T04:19:29.385Z,0.80
2018-09-25T04:20:39.037Z,1.20
2018-09-25T04:21:48.479Z,1.35
2018-09-25T04:22:58.161Z,1.60
2018-09-25T04:24:08.242Z,1.72
2018-09-25T04:25:17.792Z,0.80
2018-09-25T04:26:27.355Z,1.32
2018-09-25T04:27:37.093Z,1.00
2018-09-25T04:28:46.746Z,1.25
2018-09-25T04:29:56.334Z,1.17
2018-09-25T04:31:05.702Z,1.22
2018-09-25T04:32:15.262Z,0.80
2018-09-25T04:33:24.899Z,1.32
2018-09-25T04:34:34.638Z,1.75
2018-09-25T04:35:44.326Z,1.30
2018-09-25T04:36:53.793Z,1.05
2018-09-25T04:38:03.253Z,1.47
2018-09-25T04:39:13.949Z,0.90
2018-09-25T04:40:23.533Z,1.10
2018-09-25T04:41:32.974Z,1.05
2018-09-25T04:42:42.695Z,1.05
2018-09-25T04:43:52.429Z,1.20
2018-09-25T04:45:02.211Z,1.40
2018-09-25T04:46:12.210Z,1.30
2018-09-25T04:47:21.829Z,1.02
2018-09-25T04:48:31.257Z,1.10
2018-09-25T04:49:40.831Z,1.60
2018-09-25T04:50:50.633Z,1.00
2018-09-25T04:52:00.310Z,1.20
2018-09-25T04:53:09.768Z,1.17
2018-09-25T04:54:19.376Z,1.02
2018-09-25T04:55:29.057Z,1.20
2018-09-25T04:56:38.658Z,1.05
2018-09-25T04:57:48.471Z,1.77
2018-09-25T04:58:58.154Z,1.20
2018-09-25T05:00:07.597Z,1.70
2018-09-25T05:01:17.181Z,1.30
2018-09-25T05:02:27.112Z,1.07
2018-09-25T05:03:36.846Z,1.27
2018-09-25T05:04:46.349Z,1.40
2018-09-25T05:05:56.047Z,1.12
2018-09-25T05:07:05.540Z,1.32
2018-09-25T05:08:15.242Z,1.35
2018-09-25T05:09:24.706Z,1.17
2018-09-25T05:10:34.057Z,1.27
2018-09-25T05:11:43.669Z,1.62
2018-09-25T05:12:53.078Z,1.40
2018-09-25T05:14:02.732Z,1.60
2018-09-25T05:15:12.142Z,1.42
2018-09-25T05:16:21.800Z,1.75
2018-09-25T05:17:31.359Z,1.30
2018-09-25T05:18:41.211Z,1.52
2018-09-25T05:19:51.050Z,1.80
2018-09-25T05:21:00.699Z,1.60
2018-09-25T05:22:10.266Z,1.25
2018-09-25T05:23:19.953Z,1.52
2018-09-25T05:24:29.675Z,1.95
2018-09-25T05:25:39.308Z,1.17
2018-09-25T05:26:48.940Z,1.52
2018-09-25T05:27:58.551Z,1.37
2018-09-25T05:29:08.135Z,1.60
2018-09-25T05:30:17.650Z,1.30
2018-09-25T05:31:27.152Z,2.42
2018-09-25T05:32:36.942Z,1.37
2018-09-25T05:33:46.526Z,1.20
2018-09-25T05:34:56.129Z,1.67
2018-09-25T05:36:05.641Z,1.45
2018-09-25T05:37:15.274Z,1.55
2018-09-25T05:38:24.856Z,1.30
2018-09-25T05:39:34.258Z,1.45
2018-09-25T05:40:44.025Z,1.37
2018-09-25T05:41:53.535Z,2.02
2018-09-25T05:43:03.340Z,1.20
2018-09-25T05:44:12.860Z,2.05
2018-09-25T05:45:22.311Z,1.70
2018-09-25T05:46:31.926Z,1.67
2018-09-25T05:47:41.811Z,1.37
2018-09-25T05:48:51.531Z,1.72
2018-09-25T05:50:01.100Z,1.60
2018-09-25T05:51:11.227Z,1.50
2018-09-25T05:52:20.642Z,1.62
2018-09-25T05:53:30.611Z,1.20
2018-09-25T05:54:40.447Z,1.42
2018-09-25T05:55:49.951Z,1.72
2018-09-25T05:56:59.651Z,1.90
2018-09-25T05:58:09.047Z,1.57
2018-09-25T05:59:18.692Z,1.77
2018-09-25T06:00:28.347Z,1.70
2018-09-25T06:01:37.999Z,1.50
2018-09-25T06:02:47.496Z,1.50
2018-09-25T06:03:57.050Z,1.70
2018-09-25T06:05:06.495Z,1.77
2018-09-25T06:06:16.148Z,1.60
2018-09-25T06:07:25.787Z,1.75
2018-09-25T06:08:35.592Z,1.90
2018-09-25T06:09:45.275Z,1.60
2018-09-25T06:10:54.929Z,1.75
2018-09-25T06:12:04.615Z,1.65
2018-09-25T06:13:14.091Z,1.90
2018-09-25T06:14:23.721Z,1.98
2018-09-25T06:15:33.388Z,1.30
2018-09-25T06:16:42.935Z,1.60
2018-09-25T06:17:53.013Z,1.77
2018-09-25T06:19:02.821Z,1.25
2018-09-25T06:20:12.298Z,1.82
2018-09-25T06:21:21.993Z,1.17
2018-09-25T06:22:31.916Z,1.07
2018-09-25T06:23:41.539Z,1.37
2018-09-25T06:24:51.122Z,1.40
2018-09-25T06:26:00.968Z,1.62
2018-09-25T06:27:10.714Z,1.50
2018-09-25T06:28:20.529Z,2.45
2018-09-25T06:29:30.064Z,1.75
2018-09-25T06:30:39.703Z,1.98
2018-09-25T06:31:49.400Z,1.40
2018-09-25T06:32:59.094Z,1.10
2018-09-25T06:34:08.739Z,1.00
2018-09-25T06:35:18.720Z,1.50
2018-09-25T06:36:28.160Z,1.45
2018-09-25T06:37:38.019Z,1.02
2018-09-25T06:38:47.781Z,1.65
2018-09-25T06:39:57.365Z,1.65
2018-09-25T06:41:06.854Z,1.95
2018-09-25T06:42:16.807Z,1.45
2018-09-25T06:43:26.488Z,1.60
2018-09-25T06:44:35.949Z,1.30
2018-09-25T06:45:45.534Z,1.90
2018-09-25T06:46:55.074Z,1.20
2018-09-25T06:48:04.762Z,1.72
2018-09-25T06:49:14.512Z,1.60
2018-09-25T06:50:24.072Z,1.57
2018-09-25T06:51:33.619Z,1.52
2018-09-25T06:52:43.258Z,1.20
2018-09-25T06:53:52.762Z,1.40
2018-09-25T06:55:02.427Z,1.10
2018-09-25T06:56:12.037Z,1.32
2018-09-25T06:57:21.595Z,1.02
2018-09-25T06:58:31.373Z,1.42
2018-09-25T06:59:40.922Z,1.05
2018-09-25T07:00:50.536Z,1.32
2018-09-25T07:02:00.153Z,1.02
2018-09-25T07:03:09.875Z,0.70
2018-09-25T07:04:19.365Z,1.25
2018-09-25T07:05:29.088Z,1.05
2018-09-25T07:06:38.849Z,0.80
2018-09-25T07:07:48.403Z,1.22
2018-09-25T07:08:58.114Z,1.02
2018-09-25T07:10:07.753Z,1.20
2018-09-25T07:11:17.113Z,1.52
2018-09-25T07:12:26.551Z,0.70
2018-09-25T07:13:36.116Z,0.90
2018-09-25T07:14:45.867Z,1.37
2018-09-25T07:15:55.398Z,1.00
2018-09-25T07:17:05.208Z,1.15
2018-09-25T07:18:14.767Z,0.95
2018-09-25T07:19:24.343Z,0.57
2018-09-25T07:20:34.041Z,0.55
2018-09-25T07:21:43.692Z,1.07
2018-09-25T07:22:53.203Z,0.85
2018-09-25T07:24:02.801Z,0.80
2018-09-25T07:25:12.397Z,0.90
2018-09-25T07:26:21.657Z,0.82
2018-09-25T07:27:31.386Z,1.00
2018-09-25T07:28:41.087Z,0.93
2018-09-25T07:29:50.708Z,0.85
2018-09-25T07:31:00.348Z,1.02
2018-09-25T07:32:09.685Z,1.00
2018-09-25T07:33:19.150Z,1.20
2018-09-25T07:34:28.758Z,0.88
2018-09-25T07:35:38.558Z,1.15
2018-09-25T07:36:48.025Z,1.00
2018-09-25T07:37:57.446Z,0.82
2018-09-25T07:39:07.135Z,0.78
2018-09-25T07:40:23.301Z,1.00
2018-09-25T07:41:32.734Z,0.72
2018-09-25T07:42:42.078Z,0.78
2018-09-25T07:43:51.698Z,1.00
2018-09-25T07:45:00.977Z,0.90
2018-09-25T07:46:10.616Z,0.75
2018-09-25T07:47:20.176Z,0.95
2018-09-25T07:48:29.596Z,0.95
2018-09-25T07:49:39.149Z,0.65
2018-09-25T07:50:48.642Z,0.80
2018-09-25T07:51:58.225Z,0.90
2018-09-25T07:53:08.308Z,0.60
2018-09-25T07:54:17.946Z,0.90
2018-09-25T07:55:27.410Z,1.12
2018-09-25T07:56:37.211Z,0.70
2018-09-25T07:57:46.787Z,1.25
2018-09-25T07:58:56.590Z,0.95
2018-09-25T08:00:06.254Z,0.60
2018-09-25T08:01:16.092Z,0.85
2018-09-25T08:02:25.553Z,1.42
2018-09-25T08:03:35.280Z,0.75
2018-09-25T08:04:44.982Z,0.65
2018-09-25T08:05:54.618Z,0.78
2018-09-25T08:07:04.079Z,0.85
2018-09-25T08:08:13.615Z,1.12
2018-09-25T08:09:23.034Z,0.95
2018-09-25T08:10:32.758Z,0.93
2018-09-25T08:11:42.335Z,0.75
2018-09-25T08:12:52.009Z,0.95
2018-09-25T08:14:01.882Z,0.75
2018-09-25T08:15:11.495Z,1.30
2018-09-25T08:16:20.872Z,0.90
2018-09-25T08:17:30.603Z,0.60
2018-09-25T08:18:40.187Z,0.95
2018-09-25T08:19:49.761Z,0.80
2018-09-25T08:20:59.366Z,0.85
2018-09-25T08:22:09.090Z,0.72
2018-09-25T08:23:18.717Z,0.88
2018-09-25T08:24:28.334Z,0.50
2018-09-25T08:25:37.987Z,1.00
2018-09-25T08:26:47.520Z,0.50
2018-09-25T08:27:57.178Z,0.80
2018-09-25T08:29:06.939Z,0.80
2018-09-25T08:30:16.516Z,0.40
2018-09-25T08:31:26.134Z,0.85
2018-09-25T08:32:35.706Z,0.88
2018-09-25T08:33:45.192Z,1.10
2018-09-25T08:34:54.686Z,0.72
2018-09-25T08:36:04.390Z,0.95
2018-09-25T08:37:13.932Z,0.70
2018-09-25T08:38:23.409Z,0.60
2018-09-25T08:39:33.037Z,1.10
2018-09-25T08:40:42.379Z,1.00
2018-09-25T08:41:52.001Z,1.15
2018-09-25T08:43:01.806Z,0.60
2018-09-25T08:44:11.534Z,0.70
2018-09-25T08:45:21.267Z,0.75
2018-09-25T08:46:30.905Z,0.70
2018-09-25T08:47:40.542Z,0.65
2018-09-25T08:48:50.310Z,0.85
2018-09-25T08:49:59.774Z,0.42
2018-09-25T08:51:09.459Z,0.60
2018-09-25T08:52:19.145Z,0.65
2018-09-25T08:53:29.039Z,0.88
2018-09-25T08:54:38.741Z,0.90
2018-09-25T08:55:48.144Z,0.82
2018-09-25T08:56:57.462Z,0.70
2018-09-25T08:58:07.269Z,0.90
2018-09-25T08:59:16.673Z,0.72
2018-09-25T09:00:26.577Z,0.60
2018-09-25T09:01:36.204Z,0.57
2018-09-25T09:02:45.775Z,0.57
2018-09-25T09:03:55.247Z,0.50
2018-09-25T09:05:04.818Z,0.50
2018-09-25T09:06:14.385Z,0.80
2018-09-25T09:07:23.997Z,0.70
2018-09-25T09:08:33.505Z,1.12
2018-09-25T09:09:43.061Z,0.50
2018-09-25T09:10:52.847Z,1.05
2018-09-25T09:12:02.684Z,0.42
2018-09-25T09:13:12.348Z,0.53
2018-09-25T09:14:21.888Z,0.62
2018-09-25T09:15:31.469Z,0.60
2018-09-25T09:16:40.936Z,0.60
2018-09-25T09:17:50.410Z,0.60
2018-09-25T09:19:00.002Z,0.98
2018-09-25T09:20:10.105Z,0.55
2018-09-25T09:21:19.665Z,0.75
2018-09-25T09:22:29.544Z,0.53
2018-09-25T09:23:39.422Z,0.75
2018-09-25T09:24:48.982Z,0.42
2018-09-25T09:25:58.625Z,0.50
2018-09-25T09:27:08.264Z,0.70
2018-09-25T09:28:17.653Z,0.50
2018-09-25T09:29:27.238Z,0.50
2018-09-25T09:30:36.933Z,0.60
2018-09-25T09:31:46.525Z,0.60
2018-09-25T09:32:56.281Z,0.40
2018-09-25T09:34:12.629Z,0.60
2018-09-25T09:35:22.207Z,0.60
2018-09-25T09:36:31.974Z,0.53
2018-09-25T09:37:41.514Z,0.50
2018-09-25T09:38:51.169Z,0.70
2018-09-25T09:40:01.045Z,1.05
2018-09-25T09:41:10.627Z,0.35
2018-09-25T09:42:20.030Z,0.85
2018-09-25T09:43:29.618Z,1.40
2018-09-25T09:44:39.253Z,0.30
2018-09-25T09:45:48.848Z,0.78
2018-09-25T09:46:58.377Z,1.07
2018-09-25T09:48:08.052Z,0.50
2018-09-25T09:49:17.716Z,1.22
2018-09-25T09:50:27.333Z,0.65
2018-09-25T09:51:36.870Z,0.40
2018-09-25T09:52:46.556Z,0.53
2018-09-25T09:53:56.241Z,0.40
2018-09-25T09:55:05.662Z,0.75
2018-09-25T09:56:15.336Z,0.50
2018-09-25T09:57:24.947Z,0.40
2018-09-25T09:58:34.818Z,0.55
2018-09-25T09:59:44.304Z,0.47
2018-09-25T10:00:54.022Z,1.57
2018-09-25T10:02:03.480Z,0.45
2018-09-25T10:03:13.167Z,0.37
2018-09-25T10:04:22.711Z,0.70
2018-09-25T10:05:32.296Z,0.82
2018-09-25T10:06:41.858Z,0.50
2018-09-25T10:07:51.502Z,0.60
2018-09-25T10:09:01.176Z,0.53
2018-09-25T10:10:10.714Z,0.70
2018-09-25T10:11:20.462Z,0.50
2018-09-25T10:12:30.114Z,0.55
2018-09-25T10:13:39.639Z,0.75
2018-09-25T10:14:49.392Z,0.78
2018-09-25T10:15:59.117Z,0.60
2018-09-25T10:17:08.645Z,0.70
2018-09-25T10:18:18.343Z,0.50
2018-09-25T10:19:34.766Z,1.07
2018-09-25T10:20:44.436Z,0.70
2018-09-25T10:21:54.171Z,0.50
2018-09-25T10:23:03.839Z,0.82
2018-09-25T10:24:13.614Z,2.20
2018-09-25T10:25:23.131Z,0.60
2018-09-25T10:26:32.623Z,0.53
2018-09-25T10:27:42.421Z,0.68
2018-09-25T10:28:52.109Z,0.85
2018-09-25T10:30:01.703Z,0.80
2018-09-25T10:31:11.246Z,0.60
2018-09-25T10:32:20.902Z,0.53
2018-09-25T10:33:30.621Z,0.72
2018-09-25T10:34:40.564Z,0.47
2018-09-25T10:35:49.956Z,1.15
2018-09-25T10:36:59.711Z,0.80
2018-09-25T10:38:09.397Z,0.68
2018-09-25T10:39:18.951Z,0.90
2018-09-25T10:40:28.858Z,0.70
2018-09-25T10:41:38.696Z,0.70
2018-09-25T10:42:48.531Z,0.65
2018-09-25T10:43:58.227Z,0.80
2018-09-25T10:45:07.836Z,0.68
2018-09-25T10:46:17.483Z,0.40
2018-09-25T10:47:27.034Z,0.40
2018-09-25T10:48:36.855Z,0.50
2018-09-25T10:49:46.625Z,0.50
2018-09-25T10:50:56.214Z,0.70
2018-09-25T10:52:05.906Z,0.53
2018-09-25T10:53:15.668Z,0.78
2018-09-25T10:54:25.507Z,0.60
2018-09-25T10:55:35.128Z,0.50
2018-09-25T10:56:44.700Z,1.75
2018-09-25T10:57:54.291Z,12.88
2018-09-25T10:59:03.969Z,9.73
2018-09-25T11:00:13.480Z,5.45
2018-09-25T11:01:22.825Z,1.80
2018-09-25T11:02:32.250Z,0.80
2018-09-25T11:03:41.790Z,0.80
2018-09-25T11:04:51.343Z,0.62
2018-09-25T11:06:01.074Z,0.60
2018-09-25T11:07:10.795Z,0.50
2018-09-25T11:08:20.530Z,0.60
2018-09-25T11:09:29.997Z,0.60
2018-09-25T11:10:40.010Z,0.50
2018-09-25T11:11:49.618Z,0.60
2018-09-25T11:12:59.010Z,0.40
2018-09-25T11:14:08.768Z,0.50
2018-09-25T11:15:18.361Z,0.40
2018-09-25T11:16:28.182Z,0.40
2018-09-25T11:17:37.948Z,0.60
2018-09-25T11:18:47.491Z,0.37
2018-09-25T11:19:57.294Z,0.65
2018-09-25T11:21:06.800Z,0.75
2018-09-25T11:22:16.381Z,0.72
2018-09-25T11:23:26.196Z,0.50
2018-09-25T11:24:36.095Z,0.40
2018-09-25T11:25:45.742Z,0.55
2018-09-25T11:26:55.317Z,0.65
2018-09-25T11:28:04.894Z,0.50
2018-09-25T11:29:14.777Z,0.50
2018-09-25T11:30:24.297Z,0.50
2018-09-25T11:31:34.053Z,0.42
2018-09-25T11:32:43.605Z,1.05
2018-09-25T11:33:53.267Z,0.55
2018-09-25T11:35:02.984Z,0.60
2018-09-25T11:36:12.879Z,0.40
2018-09-25T11:37:22.584Z,0.45
2018-09-25T11:38:32.285Z,0.60
2018-09-25T11:39:41.764Z,1.50
2018-09-25T11:40:51.549Z,0.75
2018-09-25T11:42:01.037Z,0.42
2018-09-25T11:43:10.813Z,0.60
2018-09-25T11:44:20.725Z,0.60
2018-09-25T11:45:30.444Z,0.62
2018-09-25T11:46:40.201Z,1.20
2018-09-25T11:47:49.768Z,0.65
2018-09-25T11:48:59.295Z,0.70
2018-09-25T11:50:08.764Z,0.50
2018-09-25T11:51:18.475Z,0.37
2018-09-25T11:52:28.096Z,0.40
2018-09-25T11:53:37.826Z,0.42
2018-09-25T11:54:47.359Z,0.50
2018-09-25T11:55:57.144Z,0.50
2018-09-25T11:57:07.054Z,0.60
2018-09-25T11:58:16.720Z,0.40
2018-09-25T11:59:26.555Z,0.55
2018-09-25T12:00:36.147Z,0.70
2018-09-25T12:01:45.682Z,0.80
2018-09-25T12:02:55.290Z,0.60
2018-09-25T12:04:04.724Z,0.60
2018-09-25T12:05:14.517Z,0.47
2018-09-25T12:06:24.159Z,0.42
2018-09-25T12:07:33.999Z,0.40
2018-09-25T12:08:43.554Z,0.45
2018-09-25T12:09:53.328Z,0.57
2018-09-25T12:11:02.919Z,0.65
2018-09-25T12:12:12.635Z,0.40
2018-09-25T12:13:22.179Z,0.65
2018-09-25T12:14:31.764Z,0.30
2018-09-25T12:15:41.311Z,0.40
2018-09-25T12:16:50.912Z,0.37
2018-09-25T12:18:00.704Z,0.93
2018-09-25T12:19:10.278Z,0.90
2018-09-25T12:20:19.899Z,0.80
2018-09-25T12:21:29.522Z,0.72
2018-09-25T12:22:39.587Z,0.80
2018-09-25T12:23:49.077Z,0.47
2018-09-25T12:24:58.744Z,0.78
2018-09-25T12:26:08.270Z,0.50
2018-09-25T12:27:17.716Z,0.82
2018-09-25T12:28:27.228Z,0.53
2018-09-25T12:29:36.799Z,0.50
2018-09-25T12:30:46.408Z,0.55
2018-09-25T12:31:56.018Z,0.70
2018-09-25T12:33:05.728Z,0.82
2018-09-25T12:34:15.149Z,0.50
2018-09-25T12:35:24.689Z,1.00
2018-09-25T12:36:34.158Z,0.47
2018-09-25T12:37:43.957Z,0.35
2018-09-25T12:38:53.555Z,0.33
2018-09-25T12:40:03.483Z,0.40
2018-09-25T12:41:13.478Z,0.50
2018-09-25T12:42:23.292Z,0.65
2018-09-25T12:43:32.978Z,0.72
2018-09-25T12:44:42.537Z,0.70
2018-09-25T12:45:52.059Z,0.70
2018-09-25T12:47:01.956Z,0.90
2018-09-25T12:48:11.699Z,0.40
2018-09-25T12:49:21.398Z,0.93
2018-09-25T12:50:30.736Z,0.37
2018-09-25T12:51:40.108Z,0.40
2018-09-25T12:52:49.737Z,0.35
2018-09-25T12:53:59.323Z,0.40
2018-09-25T12:55:08.787Z,0.40
2018-09-25T12:56:18.327Z,0.40
2018-09-25T12:57:27.815Z,0.75
2018-09-25T12:58:37.395Z,0.50
2018-09-25T12:59:47.099Z,0.50
2018-09-25T13:00:56.878Z,0.75
2018-09-25T13:02:06.455Z,0.60
2018-09-25T13:03:16.049Z,0.50
2018-09-25T13:04:25.791Z,0.65
2018-09-25T13:05:35.277Z,0.70
2018-09-25T13:06:44.874Z,0.50
2018-09-25T13:07:54.791Z,0.50
2018-09-25T13:09:04.411Z,0.95
2018-09-25T13:10:14.257Z,0.70
2018-09-25T13:11:23.875Z,0.55
2018-09-25T13:12:33.607Z,0.57
2018-09-25T13:13:43.667Z,0.60
2018-09-25T13:14:53.402Z,0.50
2018-09-25T13:16:03.131Z,0.40
2018-09-25T13:17:12.666Z,0.40
2018-09-25T13:18:22.265Z,0.53
2018-09-25T13:19:31.863Z,0.70
2018-09-25T13:20:41.774Z,0.40
2018-09-25T13:21:51.487Z,0.40
2018-09-25T13:23:01.048Z,0.60
2018-09-25T13:24:10.867Z,0.60
2018-09-25T13:25:20.516Z,0.40
2018-09-25T13:26:30.244Z,0.70
2018-09-25T13:27:39.996Z,0.42
2018-09-25T13:28:49.509Z,0.40
2018-09-25T13:29:58.951Z,0.40
2018-09-25T13:31:08.673Z,0.45
2018-09-25T13:32:18.256Z,0.45
2018-09-25T13:33:28.149Z,0.70
2018-09-25T13:34:37.613Z,0.42
2018-09-25T13:35:47.123Z,0.40
2018-09-25T13:36:56.746Z,0.40
2018-09-25T13:38:06.472Z,0.40
2018-09-25T13:39:16.101Z,0.40
2018-09-25T13:40:25.706Z,0.60
2018-09-25T13:41:35.138Z,0.53
2018-09-25T13:42:44.662Z,0.60
2018-09-25T13:43:54.264Z,0.40
2018-09-25T13:45:03.848Z,0.80
2018-09-25T13:46:13.697Z,0.72
2018-09-25T13:47:23.245Z,0.50
2018-09-25T13:48:32.859Z,0.50
2018-09-25T13:49:42.552Z,0.37
2018-09-25T13:50:52.227Z,0.65
2018-09-25T13:52:01.871Z,0.70
2018-09-25T13:53:12.103Z,0.45
2018-09-25T13:54:21.546Z,0.68
2018-09-25T13:55:30.981Z,0.70
2018-09-25T13:56:40.569Z,0.75
2018-09-25T13:57:50.106Z,0.40
2018-09-25T13:58:59.626Z,0.55
2018-09-25T14:00:09.262Z,0.68
2018-09-25T14:01:18.979Z,0.30
2018-09-25T14:02:28.761Z,0.40
2018-09-25T14:03:38.293Z,0.68
2018-09-25T14:04:47.790Z,0.50
2018-09-25T14:05:57.236Z,0.47
2018-09-25T14:07:06.981Z,0.70
2018-09-25T14:08:16.701Z,0.50
2018-09-25T14:09:26.267Z,0.40
2018-09-25T14:10:36.090Z,0.80
2018-09-25T14:11:45.835Z,0.50
2018-09-25T14:12:55.490Z,0.60
2018-09-25T14:14:05.116Z,0.47
2018-09-25T14:15:14.678Z,0.57
2018-09-25T14:16:24.712Z,0.30
2018-09-25T14:17:34.400Z,0.40
2018-09-25T14:18:44.191Z,1.00
2018-09-25T14:19:53.725Z,0.62
2018-09-25T14:21:03.556Z,0.68
2018-09-25T14:22:13.140Z,0.85
2018-09-25T14:23:22.876Z,0.60
2018-09-25T14:24:34.509Z,0.55
2018-09-25T14:25:45.554Z,0.40
2018-09-25T14:26:55.121Z,0.40
2018-09-25T14:28:04.889Z,0.70
2018-09-25T14:29:14.908Z,0.35
2018-09-25T14:30:24.393Z,0.40
2018-09-25T14:31:33.838Z,0.90
2018-09-25T14:32:43.622Z,0.62
2018-09-25T14:33:53.193Z,0.90
2018-09-25T14:35:02.786Z,0.42
2018-09-25T14:36:13.814Z,0.40
2018-09-25T14:37:23.620Z,0.70
2018-09-25T14:38:33.242Z,0.42
2018-09-25T14:39:43.156Z,0.65
2018-09-25T14:40:52.629Z,0.70
2018-09-25T14:42:02.366Z,0.62
2018-09-25T14:43:11.901Z,0.65
2018-09-25T14:44:21.381Z,0.50
2018-09-25T14:45:32.169Z,0.55
2018-09-25T14:46:42.092Z,0.50
2018-09-25T14:47:51.621Z,0.57
2018-09-25T14:49:01.489Z,0.70
2018-09-25T14:50:10.819Z,0.65
2018-09-25T14:51:20.530Z,0.70
2018-09-25T14:52:30.560Z,0.60
2018-09-25T14:53:40.340Z,0.45
2018-09-25T14:54:50.144Z,0.50
2018-09-25T14:56:00.016Z,0.80
2018-09-25T14:57:09.719Z,0.78
2018-09-25T14:58:19.236Z,0.45
2018-09-25T14:59:28.773Z,0.40
2018-09-25T15:00:38.370Z,0.60
2018-09-25T15:01:48.172Z,0.47
2018-09-25T15:02:57.762Z,0.50
2018-09-25T15:04:07.294Z,0.47
2018-09-25T15:05:17.011Z,0.60
2018-09-25T15:06:26.778Z,0.50
2018-09-25T15:07:36.502Z,0.78
2018-09-25T15:08:46.142Z,0.45
2018-09-25T15:09:55.598Z,0.72
2018-09-25T15:11:05.117Z,0.60
2018-09-25T15:12:15.086Z,0.55
2018-09-25T15:13:24.768Z,0.50
2018-09-25T15:14:34.404Z,0.55
2018-09-25T15:15:43.939Z,0.72
2018-09-25T15:16:53.837Z,0.50
2018-09-25T15:18:03.502Z,0.30
2018-09-25T15:19:13.236Z,0.30
2018-09-25T15:20:22.863Z,0.40
2018-09-25T15:21:32.674Z,0.78
2018-09-25T15:22:42.055Z,0.50
2018-09-25T15:23:51.711Z,0.45
2018-09-25T15:25:01.317Z,0.50
2018-09-25T15:26:11.131Z,0.60
2018-09-25T15:27:20.660Z,0.70